sensor_id;sensor_type;location;lat;lon;timestamp;P1;durP1;ratioP1;P2;durP2;ratioP2
20101;SDS011;10210;52.284;9.892;2022-10-16T00:00:39;4.00;;;1.20;;
20101;SDS011;10210;52.284;9.892;2022-10-16T00:03:07;5.20;;;1.20;;
20101;SDS011;10210;52.284;9.892;2022-10-16T00:05:38;2.17;;;1.20;;
20101;SDS011;10210;52.284;9.892;2022-10-16T00:08:06;6.30;;;1.60;;
20101;SDS011;10210;52.284;9.892;2022-10-16T00:10:34;5.03;;;1.40;;
20101;SDS011;10210;52.284;9.892;2022-10-16T00:13:00;3.30;;;1.33;;
20101;SDS011;10210;52.284;9.892;2022-10-16T00:15:26;5.60;;;1.70;;
20101;SDS011;10210;52.284;9.892;2022-10-16T00:17:54;4.97;;;1.80;;
20101;SDS011;10210;52.284;9.892;2022-10-16T00:20:19;5.53;;;1.50;;
20101;SDS011;10210;52.284;9.892;2022-10-16T00:22:45;3.00;;;1.50;;
20101;SDS011;10210;52.284;9.892;2022-10-16T00:25:11;5.83;;;1.67;;
20101;SDS011;10210;52.284;9.892;2022-10-16T00:27:36;3.10;;;1.63;;
20101;SDS011;10210;52.284;9.892;2022-10-16T00:30:02;5.43;;;1.80;;
20101;SDS011;10210;52.284;9.892;2022-10-16T00:32:28;3.10;;;1.40;;
20101;SDS011;10210;52.284;9.892;2022-10-16T00:34:54;3.07;;;1.20;;
20101;SDS011;10210;52.284;9.892;2022-10-16T00:37:20;6.17;;;1.70;;
20101;SDS011;10210;52.284;9.892;2022-10-16T00:39:46;3.03;;;1.40;;
20101;SDS011;10210;52.284;9.892;2022-10-16T00:42:15;5.03;;;1.63;;
20101;SDS011;10210;52.284;9.892;2022-10-16T00:44:45;2.97;;;1.23;;
20101;SDS011;10210;52.284;9.892;2022-10-16T00:50:11;3.73;;;1.43;;
20101;SDS011;10210;52.284;9.892;2022-10-16T00:52:47;5.17;;;1.50;;
20101;SDS011;10210;52.284;9.892;2022-10-16T00:55:16;2.00;;;1.40;;
20101;SDS011;10210;52.284;9.892;2022-10-16T00:57:43;3.63;;;1.60;;
20101;SDS011;10210;52.284;9.892;2022-10-16T01:00:11;2.80;;;1.50;;
20101;SDS011;10210;52.284;9.892;2022-10-16T01:02:41;2.10;;;1.53;;
20101;SDS011;10210;52.284;9.892;2022-10-16T01:05:07;5.57;;;1.60;;
20101;SDS011;10210;52.284;9.892;2022-10-16T01:10:36;4.17;;;1.90;;
20101;SDS011;10210;52.284;9.892;2022-10-16T01:13:10;3.60;;;1.90;;
20101;SDS011;10210;52.284;9.892;2022-10-16T01:16:05;3.53;;;1.90;;
20101;SDS011;10210;52.284;9.892;2022-10-16T01:18:43;3.47;;;2.10;;
20101;SDS011;10210;52.284;9.892;2022-10-16T01:21:26;5.50;;;2.00;;
20101;SDS011;10210;52.284;9.892;2022-10-16T01:24:13;6.03;;;2.27;;
20101;SDS011;10210;52.284;9.892;2022-10-16T01:27:09;7.53;;;2.40;;
20101;SDS011;10210;52.284;9.892;2022-10-16T01:29:42;6.83;;;2.60;;
20101;SDS011;10210;52.284;9.892;2022-10-16T01:32:26;7.63;;;2.40;;
20101;SDS011;10210;52.284;9.892;2022-10-16T01:35:11;7.30;;;2.70;;
20101;SDS011;10210;52.284;9.892;2022-10-16T01:38:02;7.83;;;3.07;;
20101;SDS011;10210;52.284;9.892;2022-10-16T01:40:32;7.47;;;2.63;;
20101;SDS011;10210;52.284;9.892;2022-10-16T01:43:04;6.70;;;3.13;;
20101;SDS011;10210;52.284;9.892;2022-10-16T01:45:35;8.07;;;2.70;;
20101;SDS011;10210;52.284;9.892;2022-10-16T01:48:02;6.90;;;2.80;;
20101;SDS011;10210;52.284;9.892;2022-10-16T01:50:33;5.97;;;2.80;;
20101;SDS011;10210;52.284;9.892;2022-10-16T01:53:04;6.33;;;2.80;;
20101;SDS011;10210;52.284;9.892;2022-10-16T01:55:36;5.90;;;2.70;;
20101;SDS011;10210;52.284;9.892;2022-10-16T01:58:10;7.97;;;2.93;;
20101;SDS011;10210;52.284;9.892;2022-10-16T02:00:39;7.43;;;2.87;;
20101;SDS011;10210;52.284;9.892;2022-10-16T02:03:09;5.83;;;2.70;;
20101;SDS011;10210;52.284;9.892;2022-10-16T02:05:50;7.23;;;2.50;;
20101;SDS011;10210;52.284;9.892;2022-10-16T02:08:22;5.93;;;2.40;;
20101;SDS011;10210;52.284;9.892;2022-10-16T02:10:54;5.40;;;2.50;;
20101;SDS011;10210;52.284;9.892;2022-10-16T02:13:26;7.63;;;2.60;;
20101;SDS011;10210;52.284;9.892;2022-10-16T02:16:16;5.57;;;2.50;;
20101;SDS011;10210;52.284;9.892;2022-10-16T02:18:42;8.27;;;2.90;;
20101;SDS011;10210;52.284;9.892;2022-10-16T02:21:23;7.03;;;2.40;;
20101;SDS011;10210;52.284;9.892;2022-10-16T02:23:59;7.80;;;2.57;;
20101;SDS011;10210;52.284;9.892;2022-10-16T02:26:40;7.57;;;2.57;;
20101;SDS011;10210;52.284;9.892;2022-10-16T02:29:37;8.47;;;2.40;;
20101;SDS011;10210;52.284;9.892;2022-10-16T02:32:10;6.57;;;2.37;;
20101;SDS011;10210;52.284;9.892;2022-10-16T02:34:42;5.10;;;2.13;;
20101;SDS011;10210;52.284;9.892;2022-10-16T02:37:09;6.97;;;2.50;;
20101;SDS011;10210;52.284;9.892;2022-10-16T02:39:35;9.03;;;2.30;;
20101;SDS011;10210;52.284;9.892;2022-10-16T02:42:03;7.60;;;2.60;;
20101;SDS011;10210;52.284;9.892;2022-10-16T02:44:29;7.00;;;2.20;;
20101;SDS011;10210;52.284;9.892;2022-10-16T02:46:55;8.17;;;2.50;;
20101;SDS011;10210;52.284;9.892;2022-10-16T02:49:20;10.13;;;2.43;;
20101;SDS011;10210;52.284;9.892;2022-10-16T02:51:46;7.13;;;2.53;;
20101;SDS011;10210;52.284;9.892;2022-10-16T02:54:12;6.20;;;2.63;;
20101;SDS011;10210;52.284;9.892;2022-10-16T02:56:38;5.83;;;2.60;;
20101;SDS011;10210;52.284;9.892;2022-10-16T02:59:03;8.10;;;3.00;;
20101;SDS011;10210;52.284;9.892;2022-10-16T03:01:29;7.37;;;2.70;;
20101;SDS011;10210;52.284;9.892;2022-10-16T03:03:55;7.13;;;3.03;;
20101;SDS011;10210;52.284;9.892;2022-10-16T03:06:20;9.17;;;3.00;;
20101;SDS011;10210;52.284;9.892;2022-10-16T03:08:46;12.10;;;3.33;;
20101;SDS011;10210;52.284;9.892;2022-10-16T03:11:12;7.73;;;3.00;;
20101;SDS011;10210;52.284;9.892;2022-10-16T03:13:38;8.43;;;3.10;;
20101;SDS011;10210;52.284;9.892;2022-10-16T03:16:03;9.33;;;2.87;;
20101;SDS011;10210;52.284;9.892;2022-10-16T03:18:29;7.00;;;2.87;;
20101;SDS011;10210;52.284;9.892;2022-10-16T03:20:55;7.70;;;2.80;;
20101;SDS011;10210;52.284;9.892;2022-10-16T03:23:20;7.73;;;2.97;;
20101;SDS011;10210;52.284;9.892;2022-10-16T03:25:46;9.27;;;2.93;;
20101;SDS011;10210;52.284;9.892;2022-10-16T03:28:12;8.13;;;3.00;;
20101;SDS011;10210;52.284;9.892;2022-10-16T03:30:37;5.87;;;2.47;;
20101;SDS011;10210;52.284;9.892;2022-10-16T03:33:04;7.17;;;2.57;;
20101;SDS011;10210;52.284;9.892;2022-10-16T03:35:31;8.13;;;2.60;;
20101;SDS011;10210;52.284;9.892;2022-10-16T03:37:57;8.23;;;2.70;;
20101;SDS011;10210;52.284;9.892;2022-10-16T03:40:23;7.17;;;2.43;;
20101;SDS011;10210;52.284;9.892;2022-10-16T03:42:49;7.13;;;2.50;;
20101;SDS011;10210;52.284;9.892;2022-10-16T03:45:14;7.50;;;2.43;;
20101;SDS011;10210;52.284;9.892;2022-10-16T03:47:40;6.00;;;2.50;;
20101;SDS011;10210;52.284;9.892;2022-10-16T03:50:06;6.27;;;2.20;;
20101;SDS011;10210;52.284;9.892;2022-10-16T03:52:33;6.23;;;2.50;;
20101;SDS011;10210;52.284;9.892;2022-10-16T03:54:59;6.10;;;2.40;;
20101;SDS011;10210;52.284;9.892;2022-10-16T03:57:24;5.53;;;2.10;;
20101;SDS011;10210;52.284;9.892;2022-10-16T03:59:50;6.00;;;2.27;;
20101;SDS011;10210;52.284;9.892;2022-10-16T04:02:16;6.80;;;2.63;;
20101;SDS011;10210;52.284;9.892;2022-10-16T04:04:41;7.73;;;2.40;;
20101;SDS011;10210;52.284;9.892;2022-10-16T04:07:07;6.23;;;2.40;;
20101;SDS011;10210;52.284;9.892;2022-10-16T04:09:33;6.17;;;2.23;;
20101;SDS011;10210;52.284;9.892;2022-10-16T04:11:59;6.33;;;2.37;;
20101;SDS011;10210;52.284;9.892;2022-10-16T04:14:24;5.67;;;2.40;;
20101;SDS011;10210;52.284;9.892;2022-10-16T04:16:50;6.23;;;2.47;;
20101;SDS011;10210;52.284;9.892;2022-10-16T04:19:16;6.93;;;2.53;;
20101;SDS011;10210;52.284;9.892;2022-10-16T04:21:41;5.80;;;2.30;;
20101;SDS011;10210;52.284;9.892;2022-10-16T04:24:07;7.23;;;2.70;;
20101;SDS011;10210;52.284;9.892;2022-10-16T04:26:33;7.83;;;2.73;;
20101;SDS011;10210;52.284;9.892;2022-10-16T04:28:58;5.97;;;2.60;;
20101;SDS011;10210;52.284;9.892;2022-10-16T04:31:24;7.37;;;2.40;;
20101;SDS011;10210;52.284;9.892;2022-10-16T04:33:50;8.13;;;2.53;;
20101;SDS011;10210;52.284;9.892;2022-10-16T04:36:15;6.60;;;2.57;;
20101;SDS011;10210;52.284;9.892;2022-10-16T04:38:41;7.17;;;2.67;;
20101;SDS011;10210;52.284;9.892;2022-10-16T04:41:07;7.70;;;2.50;;
20101;SDS011;10210;52.284;9.892;2022-10-16T04:43:33;7.17;;;3.17;;
20101;SDS011;10210;52.284;9.892;2022-10-16T04:46:00;6.37;;;2.30;;
20101;SDS011;10210;52.284;9.892;2022-10-16T04:48:26;7.53;;;2.63;;
20101;SDS011;10210;52.284;9.892;2022-10-16T04:50:53;5.73;;;2.50;;
20101;SDS011;10210;52.284;9.892;2022-10-16T04:53:18;7.07;;;2.20;;
20101;SDS011;10210;52.284;9.892;2022-10-16T04:55:45;6.33;;;2.37;;
20101;SDS011;10210;52.284;9.892;2022-10-16T04:58:10;8.03;;;2.50;;
20101;SDS011;10210;52.284;9.892;2022-10-16T05:00:36;7.40;;;2.40;;
20101;SDS011;10210;52.284;9.892;2022-10-16T05:03:03;6.80;;;2.40;;
20101;SDS011;10210;52.284;9.892;2022-10-16T05:05:32;9.37;;;2.50;;
20101;SDS011;10210;52.284;9.892;2022-10-16T05:07:58;7.90;;;2.40;;
20101;SDS011;10210;52.284;9.892;2022-10-16T05:10:24;5.73;;;2.30;;
20101;SDS011;10210;52.284;9.892;2022-10-16T05:12:50;8.77;;;2.40;;
20101;SDS011;10210;52.284;9.892;2022-10-16T05:15:16;8.27;;;2.73;;
20101;SDS011;10210;52.284;9.892;2022-10-16T05:17:43;6.73;;;2.40;;
20101;SDS011;10210;52.284;9.892;2022-10-16T05:20:09;8.17;;;2.40;;
20101;SDS011;10210;52.284;9.892;2022-10-16T05:22:35;8.57;;;2.20;;
20101;SDS011;10210;52.284;9.892;2022-10-16T05:25:01;7.10;;;2.80;;
20101;SDS011;10210;52.284;9.892;2022-10-16T05:27:27;5.97;;;2.47;;
20101;SDS011;10210;52.284;9.892;2022-10-16T05:29:54;5.97;;;2.07;;
20101;SDS011;10210;52.284;9.892;2022-10-16T05:32:19;6.40;;;2.20;;
20101;SDS011;10210;52.284;9.892;2022-10-16T05:34:45;4.70;;;2.10;;
20101;SDS011;10210;52.284;9.892;2022-10-16T05:37:11;5.07;;;1.97;;
20101;SDS011;10210;52.284;9.892;2022-10-16T05:39:37;5.97;;;2.10;;
20101;SDS011;10210;52.284;9.892;2022-10-16T05:42:04;6.93;;;2.30;;
20101;SDS011;10210;52.284;9.892;2022-10-16T05:44:30;5.37;;;2.40;;
20101;SDS011;10210;52.284;9.892;2022-10-16T05:46:56;3.17;;;1.80;;
20101;SDS011;10210;52.284;9.892;2022-10-16T05:49:22;5.37;;;2.00;;
20101;SDS011;10210;52.284;9.892;2022-10-16T05:51:47;5.00;;;2.10;;
20101;SDS011;10210;52.284;9.892;2022-10-16T05:54:13;5.90;;;2.03;;
20101;SDS011;10210;52.284;9.892;2022-10-16T05:56:39;4.33;;;1.90;;
20101;SDS011;10210;52.284;9.892;2022-10-16T05:59:05;4.97;;;1.97;;
20101;SDS011;10210;52.284;9.892;2022-10-16T06:01:31;5.83;;;2.10;;
20101;SDS011;10210;52.284;9.892;2022-10-16T06:03:57;5.47;;;2.10;;
20101;SDS011;10210;52.284;9.892;2022-10-16T06:06:25;2.80;;;1.80;;
20101;SDS011;10210;52.284;9.892;2022-10-16T06:08:54;3.93;;;1.90;;
20101;SDS011;10210;52.284;9.892;2022-10-16T06:11:23;5.20;;;1.80;;
20101;SDS011;10210;52.284;9.892;2022-10-16T06:13:54;3.23;;;1.77;;
20101;SDS011;10210;52.284;9.892;2022-10-16T06:16:23;5.67;;;2.00;;
20101;SDS011;10210;52.284;9.892;2022-10-16T06:18:51;4.47;;;1.83;;
20101;SDS011;10210;52.284;9.892;2022-10-16T06:21:19;5.83;;;2.00;;
20101;SDS011;10210;52.284;9.892;2022-10-16T06:23:49;5.33;;;2.20;;
20101;SDS011;10210;52.284;9.892;2022-10-16T06:26:17;5.97;;;1.80;;
20101;SDS011;10210;52.284;9.892;2022-10-16T06:28:45;6.70;;;2.13;;
20101;SDS011;10210;52.284;9.892;2022-10-16T06:31:11;4.70;;;2.00;;
20101;SDS011;10210;52.284;9.892;2022-10-16T06:33:39;5.43;;;2.40;;
20101;SDS011;10210;52.284;9.892;2022-10-16T06:36:06;5.33;;;2.40;;
20101;SDS011;10210;52.284;9.892;2022-10-16T06:38:38;6.93;;;2.80;;
20101;SDS011;10210;52.284;9.892;2022-10-16T06:41:04;6.27;;;2.70;;
20101;SDS011;10210;52.284;9.892;2022-10-16T06:43:32;5.20;;;2.50;;
20101;SDS011;10210;52.284;9.892;2022-10-16T06:46:00;6.60;;;2.40;;
20101;SDS011;10210;52.284;9.892;2022-10-16T06:48:28;9.10;;;2.60;;
20101;SDS011;10210;52.284;9.892;2022-10-16T06:50:58;7.37;;;2.93;;
20101;SDS011;10210;52.284;9.892;2022-10-16T06:53:51;6.03;;;2.50;;
20101;SDS011;10210;52.284;9.892;2022-10-16T06:56:25;9.10;;;2.90;;
20101;SDS011;10210;52.284;9.892;2022-10-16T06:58:55;6.53;;;2.40;;
20101;SDS011;10210;52.284;9.892;2022-10-16T07:01:22;8.93;;;3.27;;
20101;SDS011;10210;52.284;9.892;2022-10-16T07:03:49;8.40;;;2.73;;
20101;SDS011;10210;52.284;9.892;2022-10-16T07:06:16;6.73;;;2.50;;
20101;SDS011;10210;52.284;9.892;2022-10-16T07:08:46;5.13;;;2.47;;
20101;SDS011;10210;52.284;9.892;2022-10-16T07:11:13;5.97;;;2.40;;
20101;SDS011;10210;52.284;9.892;2022-10-16T07:13:45;7.83;;;2.67;;
20101;SDS011;10210;52.284;9.892;2022-10-16T07:16:16;6.67;;;2.57;;
20101;SDS011;10210;52.284;9.892;2022-10-16T07:18:45;7.10;;;2.70;;
20101;SDS011;10210;52.284;9.892;2022-10-16T07:21:14;7.13;;;2.40;;
20101;SDS011;10210;52.284;9.892;2022-10-16T07:23:44;5.73;;;2.10;;
20101;SDS011;10210;52.284;9.892;2022-10-16T07:26:10;7.37;;;2.43;;
20101;SDS011;10210;52.284;9.892;2022-10-16T07:28:37;5.00;;;2.40;;
20101;SDS011;10210;52.284;9.892;2022-10-16T07:31:05;4.90;;;2.20;;
20101;SDS011;10210;52.284;9.892;2022-10-16T07:33:36;4.53;;;2.13;;
20101;SDS011;10210;52.284;9.892;2022-10-16T07:36:03;3.63;;;1.90;;
20101;SDS011;10210;52.284;9.892;2022-10-16T07:38:30;4.40;;;2.10;;
20101;SDS011;10210;52.284;9.892;2022-10-16T07:40:59;7.83;;;2.07;;
20101;SDS011;10210;52.284;9.892;2022-10-16T07:43:29;4.60;;;2.10;;
20101;SDS011;10210;52.284;9.892;2022-10-16T07:45:56;3.57;;;1.90;;
20101;SDS011;10210;52.284;9.892;2022-10-16T07:48:22;5.97;;;2.10;;
20101;SDS011;10210;52.284;9.892;2022-10-16T07:50:51;4.80;;;1.80;;
20101;SDS011;10210;52.284;9.892;2022-10-16T07:53:17;5.33;;;1.70;;
20101;SDS011;10210;52.284;9.892;2022-10-16T07:55:42;5.50;;;1.93;;
20101;SDS011;10210;52.284;9.892;2022-10-16T07:58:08;5.53;;;2.03;;
20101;SDS011;10210;52.284;9.892;2022-10-16T08:00:36;6.40;;;2.00;;
20101;SDS011;10210;52.284;9.892;2022-10-16T08:03:02;4.60;;;1.87;;
20101;SDS011;10210;52.284;9.892;2022-10-16T08:05:29;3.83;;;1.87;;
20101;SDS011;10210;52.284;9.892;2022-10-16T08:07:57;3.23;;;1.90;;
20101;SDS011;10210;52.284;9.892;2022-10-16T08:10:24;4.23;;;1.93;;
20101;SDS011;10210;52.284;9.892;2022-10-16T08:12:52;5.40;;;2.13;;
20101;SDS011;10210;52.284;9.892;2022-10-16T08:15:18;6.00;;;2.03;;
20101;SDS011;10210;52.284;9.892;2022-10-16T08:17:53;6.10;;;2.00;;
20101;SDS011;10210;52.284;9.892;2022-10-16T08:20:24;4.73;;;1.77;;
20101;SDS011;10210;52.284;9.892;2022-10-16T08:22:51;3.03;;;1.60;;
20101;SDS011;10210;52.284;9.892;2022-10-16T08:25:17;2.90;;;1.50;;
20101;SDS011;10210;52.284;9.892;2022-10-16T08:27:42;3.53;;;1.30;;
20101;SDS011;10210;52.284;9.892;2022-10-16T08:30:09;4.00;;;1.40;;
20101;SDS011;10210;52.284;9.892;2022-10-16T08:32:36;3.63;;;1.30;;
20101;SDS011;10210;52.284;9.892;2022-10-16T08:35:02;1.47;;;1.20;;
20101;SDS011;10210;52.284;9.892;2022-10-16T08:37:31;3.60;;;1.40;;
20101;SDS011;10210;52.284;9.892;2022-10-16T08:39:58;3.53;;;1.17;;
20101;SDS011;10210;52.284;9.892;2022-10-16T08:50:49;3.33;;;1.40;;
20101;SDS011;10210;52.284;9.892;2022-10-16T08:53:28;3.80;;;1.13;;
20101;SDS011;10210;52.284;9.892;2022-10-16T08:56:03;2.30;;;1.30;;
20101;SDS011;10210;52.284;9.892;2022-10-16T08:58:29;3.33;;;1.20;;
20101;SDS011;10210;52.284;9.892;2022-10-16T09:01:00;3.73;;;1.50;;
20101;SDS011;10210;52.284;9.892;2022-10-16T09:03:35;1.90;;;1.10;;
20101;SDS011;10210;52.284;9.892;2022-10-16T09:23:18;2.30;;;1.30;;
20101;SDS011;10210;52.284;9.892;2022-10-16T09:25:51;2.40;;;1.10;;
20101;SDS011;10210;52.284;9.892;2022-10-16T09:28:20;1.97;;;1.17;;
20101;SDS011;10210;52.284;9.892;2022-10-16T09:30:46;1.77;;;1.20;;
20101;SDS011;10210;52.284;9.892;2022-10-16T09:33:14;2.93;;;1.10;;
20101;SDS011;10210;52.284;9.892;2022-10-16T09:35:48;2.80;;;1.00;;
20101;SDS011;10210;52.284;9.892;2022-10-16T09:38:36;1.20;;;0.97;;
20101;SDS011;10210;52.284;9.892;2022-10-16T09:41:03;1.63;;;1.07;;
20101;SDS011;10210;52.284;9.892;2022-10-16T09:43:59;1.20;;;1.00;;
20101;SDS011;10210;52.284;9.892;2022-10-16T09:46:31;4.47;;;1.20;;
20101;SDS011;10210;52.284;9.892;2022-10-16T09:49:22;3.50;;;1.23;;
20101;SDS011;10210;52.284;9.892;2022-10-16T09:51:51;2.17;;;1.03;;
20101;SDS011;10210;52.284;9.892;2022-10-16T09:54:29;6.97;;;1.50;;
20101;SDS011;10210;52.284;9.892;2022-10-16T09:57:04;1.93;;;1.13;;
20101;SDS011;10210;52.284;9.892;2022-10-16T09:59:45;3.87;;;1.07;;
20101;SDS011;10210;52.284;9.892;2022-10-16T10:02:40;2.50;;;1.03;;
20101;SDS011;10210;52.284;9.892;2022-10-16T10:05:05;3.63;;;0.93;;
20101;SDS011;10210;52.284;9.892;2022-10-16T10:07:57;3.40;;;1.07;;
20101;SDS011;10210;52.284;9.892;2022-10-16T10:10:31;4.70;;;1.23;;
20101;SDS011;10210;52.284;9.892;2022-10-16T10:13:01;2.23;;;1.00;;
20101;SDS011;10210;52.284;9.892;2022-10-16T10:15:32;3.00;;;0.90;;
20101;SDS011;10210;52.284;9.892;2022-10-16T10:18:01;1.77;;;0.87;;
20101;SDS011;10210;52.284;9.892;2022-10-16T10:20:31;3.43;;;1.20;;
20101;SDS011;10210;52.284;9.892;2022-10-16T10:23:22;5.07;;;1.20;;
20101;SDS011;10210;52.284;9.892;2022-10-16T10:25:53;3.23;;;1.10;;
20101;SDS011;10210;52.284;9.892;2022-10-16T10:35:19;5.37;;;1.47;;
20101;SDS011;10210;52.284;9.892;2022-10-16T10:38:06;5.13;;;1.07;;
20101;SDS011;10210;52.284;9.892;2022-10-16T10:40:52;7.13;;;1.20;;
20101;SDS011;10210;52.284;9.892;2022-10-16T10:43:44;6.23;;;1.10;;
20101;SDS011;10210;52.284;9.892;2022-10-16T10:46:32;5.80;;;1.30;;
20101;SDS011;10210;52.284;9.892;2022-10-16T10:49:31;5.87;;;1.30;;
20101;SDS011;10210;52.284;9.892;2022-10-16T10:54:45;10.60;;;2.90;;
20101;SDS011;10210;52.284;9.892;2022-10-16T11:00:44;3.80;;;1.50;;
20101;SDS011;10210;52.284;9.892;2022-10-16T11:03:42;3.97;;;1.20;;
20101;SDS011;10210;52.284;9.892;2022-10-16T11:06:40;4.13;;;1.20;;
20101;SDS011;10210;52.284;9.892;2022-10-16T11:14:50;4.60;;;1.40;;
20101;SDS011;10210;52.284;9.892;2022-10-16T11:17:42;3.87;;;1.10;;
20101;SDS011;10210;52.284;9.892;2022-10-16T11:20:26;4.93;;;1.30;;
20101;SDS011;10210;52.284;9.892;2022-10-16T11:23:26;5.80;;;1.27;;
20101;SDS011;10210;52.284;9.892;2022-10-16T11:26:02;3.73;;;1.10;;
20101;SDS011;10210;52.284;9.892;2022-10-16T11:28:48;3.23;;;0.93;;
20101;SDS011;10210;52.284;9.892;2022-10-16T11:31:40;1.90;;;1.00;;
20101;SDS011;10210;52.284;9.892;2022-10-16T11:39:30;3.90;;;0.90;;
20101;SDS011;10210;52.284;9.892;2022-10-16T11:47:40;4.13;;;1.13;;
20101;SDS011;10210;52.284;9.892;2022-10-16T11:56:12;1.57;;;0.80;;
20101;SDS011;10210;52.284;9.892;2022-10-16T12:01:38;3.67;;;1.10;;
20101;SDS011;10210;52.284;9.892;2022-10-16T12:06:59;2.93;;;1.20;;
20101;SDS011;10210;52.284;9.892;2022-10-16T12:09:37;5.83;;;1.50;;
20101;SDS011;10210;52.284;9.892;2022-10-16T12:15:28;6.70;;;1.20;;
20101;SDS011;10210;52.284;9.892;2022-10-16T12:17:48;5.47;;;0.90;;
20101;SDS011;10210;52.284;9.892;2022-10-16T12:20:29;4.70;;;1.10;;
20101;SDS011;10210;52.284;9.892;2022-10-16T12:25:36;2.00;;;1.10;;
20101;SDS011;10210;52.284;9.892;2022-10-16T12:30:40;3.83;;;1.20;;
20101;SDS011;10210;52.284;9.892;2022-10-16T12:33:25;3.90;;;1.07;;
20101;SDS011;10210;52.284;9.892;2022-10-16T12:35:53;3.80;;;0.90;;
20101;SDS011;10210;52.284;9.892;2022-10-16T12:38:28;5.27;;;0.97;;
20101;SDS011;10210;52.284;9.892;2022-10-16T12:41:59;2.40;;;0.83;;
20101;SDS011;10210;52.284;9.892;2022-10-16T12:44:24;3.50;;;1.00;;
20101;SDS011;10210;52.284;9.892;2022-10-16T12:46:54;2.93;;;0.80;;
20101;SDS011;10210;52.284;9.892;2022-10-16T12:49:35;2.73;;;0.63;;
20101;SDS011;10210;52.284;9.892;2022-10-16T12:52:04;3.77;;;1.00;;
20101;SDS011;10210;52.284;9.892;2022-10-16T12:55:02;2.20;;;0.70;;
20101;SDS011;10210;52.284;9.892;2022-10-16T12:57:37;3.17;;;0.70;;
20101;SDS011;10210;52.284;9.892;2022-10-16T13:00:47;1.77;;;0.60;;
20101;SDS011;10210;52.284;9.892;2022-10-16T13:03:33;2.77;;;0.77;;
20101;SDS011;10210;52.284;9.892;2022-10-16T13:21:14;1.53;;;0.60;;
20101;SDS011;10210;52.284;9.892;2022-10-16T13:29:31;3.47;;;0.80;;
20101;SDS011;10210;52.284;9.892;2022-10-16T13:31:59;2.33;;;0.70;;
20101;SDS011;10210;52.284;9.892;2022-10-16T13:34:32;2.50;;;0.87;;
20101;SDS011;10210;52.284;9.892;2022-10-16T13:37:15;1.90;;;0.80;;
20101;SDS011;10210;52.284;9.892;2022-10-16T13:39:47;3.60;;;1.87;;
20101;SDS011;10210;52.284;9.892;2022-10-16T13:42:22;5.60;;;1.10;;
20101;SDS011;10210;52.284;9.892;2022-10-16T13:44:54;2.10;;;0.80;;
20101;SDS011;10210;52.284;9.892;2022-10-16T13:52:37;4.93;;;1.00;;
20101;SDS011;10210;52.284;9.892;2022-10-16T13:55:10;1.50;;;0.70;;
20101;SDS011;10210;52.284;9.892;2022-10-16T13:57:41;3.43;;;0.67;;
20101;SDS011;10210;52.284;9.892;2022-10-16T14:00:18;2.40;;;0.60;;
20101;SDS011;10210;52.284;9.892;2022-10-16T14:02:49;1.40;;;0.60;;
20101;SDS011;10210;52.284;9.892;2022-10-16T14:05:22;3.60;;;0.70;;
20101;SDS011;10210;52.284;9.892;2022-10-16T14:07:49;2.50;;;0.70;;
20101;SDS011;10210;52.284;9.892;2022-10-16T14:10:21;1.60;;;0.60;;
20101;SDS011;10210;52.284;9.892;2022-10-16T14:13:02;1.93;;;0.80;;
20101;SDS011;10210;52.284;9.892;2022-10-16T14:15:31;2.57;;;0.60;;
20101;SDS011;10210;52.284;9.892;2022-10-16T14:18:01;5.50;;;0.70;;
20101;SDS011;10210;52.284;9.892;2022-10-16T14:20:30;3.73;;;0.90;;
20101;SDS011;10210;52.284;9.892;2022-10-16T14:23:03;3.83;;;0.93;;
20101;SDS011;10210;52.284;9.892;2022-10-16T14:25:44;3.37;;;1.00;;
20101;SDS011;10210;52.284;9.892;2022-10-16T14:30:50;1.80;;;0.70;;
20101;SDS011;10210;52.284;9.892;2022-10-16T14:35:59;2.77;;;1.00;;
20101;SDS011;10210;52.284;9.892;2022-10-16T14:38:34;1.33;;;0.40;;
20101;SDS011;10210;52.284;9.892;2022-10-16T14:41:02;2.27;;;0.70;;
20101;SDS011;10210;52.284;9.892;2022-10-16T14:43:33;3.83;;;0.80;;
20101;SDS011;10210;52.284;9.892;2022-10-16T14:46:06;2.60;;;0.60;;
20101;SDS011;10210;52.284;9.892;2022-10-16T14:48:41;4.80;;;0.70;;
20101;SDS011;10210;52.284;9.892;2022-10-16T14:51:18;2.77;;;0.87;;
20101;SDS011;10210;52.284;9.892;2022-10-16T14:53:46;4.10;;;1.20;;
20101;SDS011;10210;52.284;9.892;2022-10-16T14:56:14;4.03;;;0.93;;
20101;SDS011;10210;52.284;9.892;2022-10-16T14:58:50;2.47;;;0.73;;
20101;SDS011;10210;52.284;9.892;2022-10-16T15:01:17;0.87;;;0.43;;
20101;SDS011;10210;52.284;9.892;2022-10-16T15:03:43;3.23;;;0.83;;
20101;SDS011;10210;52.284;9.892;2022-10-16T15:06:10;2.40;;;0.63;;
20101;SDS011;10210;52.284;9.892;2022-10-16T15:08:37;2.30;;;0.70;;
20101;SDS011;10210;52.284;9.892;2022-10-16T15:11:03;2.57;;;1.10;;
20101;SDS011;10210;52.284;9.892;2022-10-16T15:13:31;3.67;;;0.90;;
20101;SDS011;10210;52.284;9.892;2022-10-16T15:15:56;2.13;;;0.70;;
20101;SDS011;10210;52.284;9.892;2022-10-16T15:18:23;2.20;;;0.87;;
20101;SDS011;10210;52.284;9.892;2022-10-16T15:20:49;3.07;;;0.83;;
20101;SDS011;10210;52.284;9.892;2022-10-16T15:23:20;1.63;;;0.90;;
20101;SDS011;10210;52.284;9.892;2022-10-16T15:25:49;3.27;;;0.90;;
20101;SDS011;10210;52.284;9.892;2022-10-16T15:28:19;2.97;;;0.90;;
20101;SDS011;10210;52.284;9.892;2022-10-16T15:30:48;1.37;;;0.70;;
20101;SDS011;10210;52.284;9.892;2022-10-16T15:33:23;0.77;;;0.50;;
20101;SDS011;10210;52.284;9.892;2022-10-16T15:35:54;2.27;;;0.70;;
20101;SDS011;10210;52.284;9.892;2022-10-16T15:38:20;2.20;;;0.50;;
20101;SDS011;10210;52.284;9.892;2022-10-16T15:40:47;0.90;;;0.60;;
20101;SDS011;10210;52.284;9.892;2022-10-16T15:43:14;2.90;;;0.97;;
20101;SDS011;10210;52.284;9.892;2022-10-16T15:45:40;2.10;;;0.90;;
20101;SDS011;10210;52.284;9.892;2022-10-16T15:48:07;2.20;;;0.80;;
20101;SDS011;10210;52.284;9.892;2022-10-16T15:50:38;3.27;;;0.87;;
20101;SDS011;10210;52.284;9.892;2022-10-16T15:53:05;4.40;;;1.20;;
20101;SDS011;10210;52.284;9.892;2022-10-16T15:55:30;6.80;;;1.20;;
20101;SDS011;10210;52.284;9.892;2022-10-16T15:57:56;2.50;;;0.97;;
20101;SDS011;10210;52.284;9.892;2022-10-16T16:00:22;2.37;;;0.90;;
20101;SDS011;10210;52.284;9.892;2022-10-16T16:02:51;4.60;;;1.30;;
20101;SDS011;10210;52.284;9.892;2022-10-16T16:05:18;1.73;;;0.83;;
20101;SDS011;10210;52.284;9.892;2022-10-16T16:07:46;4.63;;;1.07;;
20101;SDS011;10210;52.284;9.892;2022-10-16T16:10:12;4.77;;;1.60;;
20101;SDS011;10210;52.284;9.892;2022-10-16T16:12:39;4.67;;;1.50;;
20101;SDS011;10210;52.284;9.892;2022-10-16T16:15:05;3.17;;;1.53;;
20101;SDS011;10210;52.284;9.892;2022-10-16T16:17:34;5.90;;;1.60;;
20101;SDS011;10210;52.284;9.892;2022-10-16T16:20:01;4.20;;;1.30;;
20101;SDS011;10210;52.284;9.892;2022-10-16T16:22:29;2.80;;;1.10;;
20101;SDS011;10210;52.284;9.892;2022-10-16T16:24:55;1.13;;;0.90;;
20101;SDS011;10210;52.284;9.892;2022-10-16T16:27:21;4.60;;;1.10;;
20101;SDS011;10210;52.284;9.892;2022-10-16T16:29:49;3.00;;;0.87;;
20101;SDS011;10210;52.284;9.892;2022-10-16T16:32:15;3.70;;;1.20;;
20101;SDS011;10210;52.284;9.892;2022-10-16T16:34:41;3.23;;;1.07;;
20101;SDS011;10210;52.284;9.892;2022-10-16T16:37:07;2.77;;;1.03;;
20101;SDS011;10210;52.284;9.892;2022-10-16T16:39:33;3.27;;;0.90;;
20101;SDS011;10210;52.284;9.892;2022-10-16T16:41:58;1.70;;;0.90;;
20101;SDS011;10210;52.284;9.892;2022-10-16T16:44:24;1.33;;;0.50;;
20101;SDS011;10210;52.284;9.892;2022-10-16T16:46:51;2.33;;;0.80;;
20101;SDS011;10210;52.284;9.892;2022-10-16T16:49:17;2.73;;;0.60;;
20101;SDS011;10210;52.284;9.892;2022-10-16T16:51:43;3.30;;;0.83;;
20101;SDS011;10210;52.284;9.892;2022-10-16T16:54:09;3.43;;;1.23;;
20101;SDS011;10210;52.284;9.892;2022-10-16T16:56:38;3.40;;;1.50;;
20101;SDS011;10210;52.284;9.892;2022-10-16T16:59:04;3.80;;;1.70;;
20101;SDS011;10210;52.284;9.892;2022-10-16T17:01:30;5.50;;;1.77;;